Waukegan, IL

3:27 AM CST on November 24, 2014 (GMT -0600)
Kenosha Regional | Change Station
CLOSE
Current Station
Airport
Location: Kenosha,
Elevation: 741 ft
Nearby Weather Stations
Active Advisory: Winter Weather Advisory

Elev 741 ft 42.60 °N, 87.94 °W | Updated 23 minutes ago

Overcast
Overcast
47 °F
Feels Like 47 °F
N
9
Wind Variable Wind from WSW

Today
High -- | Low -- °F
--% Chance of Precip.
Yesterday
High -- | Low -- °F
Precip. -- in
6:53 AM 4:22 PM
Waxing Crescent, 4% visible
Pressure 29.05 in
Visibility 3.0 miles
Clouds Overcast 400 ft
Dew Point 46 °F
Humidity 97%
Rainfall 0.04 in
Snow Depth Not available.
UV 0 out of 12
Pollen .10 out of 12
Air Quality Not available.
Flu Activity Not available.
SPECI KENW 240904Z AUTO 25008KT 3SM -RA BR OVC004 08/08 A2905 RMK AO2 RAB0854 P0000 T00830078

More Conditions Fewer Conditions

Pressure 29.05 in
Visibility 3.0 miles
Clouds Overcast 400 ft
Dew Point 46 °F
Humidity 97%
Rainfall 0.04 in
Snow Depth Not available.
UV 0 out of 12
Pollen .10 out of 12
Air Quality Not available.
Flu Activity Not available.
SPECI KENW 240904Z AUTO 25008KT 3SM -RA BR OVC004 08/08 A2905 RMK AO2 RAB0854 P0000 T00830078

More Conditions Fewer Conditions

10-Day Weather Forecast

Almanac

Astronomy

Nov. 24, 2014 Rise Set
Actual Time
Civil Twilight
Nautical Twilight
Astronomical Twilight
Moon
Length of Visible Light
Length of Day
Tomorrow will be .
, % of the Moon is Illuminated

Today's Extremes

State Highs State Lows

Community

WunderPhotos

Upload Photos

1,773,294 photos uploaded!

WunderBlogs® & News

Nearby

Air Quality

  Air Quality AQ Index Pollutant
Not available.

Snow Depth

Station Depth Elevation

Earthquake Activity

City Distance Mag. Time & Date
Minimum magnitude displayed is 2.5.

Coastal Water Temperatures

Place Temperature

Nearby Weather Stations